sensor_id;sensor_type;location;lat;lon;timestamp;P1;durP1;ratioP1;P2;durP2;ratioP2
3261;SDS011;1643;47.746;9.000;2023-04-24T00:00:13;1.10;;;1.00;;
3261;SDS011;1643;47.746;9.000;2023-04-24T00:02:39;1.20;;;1.10;;
3261;SDS011;1643;47.746;9.000;2023-04-24T00:05:06;2.60;;;1.00;;
3261;SDS011;1643;47.746;9.000;2023-04-24T00:07:32;1.10;;;1.00;;
3261;SDS011;1643;47.746;9.000;2023-04-24T00:09:58;0.90;;;0.90;;
3261;SDS011;1643;47.746;9.000;2023-04-24T00:12:25;1.30;;;0.90;;
3261;SDS011;1643;47.746;9.000;2023-04-24T00:14:51;1.67;;;1.10;;
3261;SDS011;1643;47.746;9.000;2023-04-24T00:17:16;1.30;;;1.20;;
3261;SDS011;1643;47.746;9.000;2023-04-24T00:19:45;1.00;;;1.00;;
3261;SDS011;1643;47.746;9.000;2023-04-24T00:22:11;0.90;;;0.90;;
3261;SDS011;1643;47.746;9.000;2023-04-24T00:24:38;0.90;;;0.90;;
3261;SDS011;1643;47.746;9.000;2023-04-24T00:27:04;1.93;;;0.90;;
3261;SDS011;1643;47.746;9.000;2023-04-24T00:29:29;1.00;;;0.90;;
3261;SDS011;1643;47.746;9.000;2023-04-24T00:31:55;1.30;;;1.10;;
3261;SDS011;1643;47.746;9.000;2023-04-24T00:34:21;1.57;;;1.10;;
3261;SDS011;1643;47.746;9.000;2023-04-24T00:36:46;1.00;;;0.90;;
3261;SDS011;1643;47.746;9.000;2023-04-24T00:39:14;0.90;;;0.90;;
3261;SDS011;1643;47.746;9.000;2023-04-24T00:41:40;0.80;;;0.80;;
3261;SDS011;1643;47.746;9.000;2023-04-24T00:44:06;0.80;;;0.80;;
3261;SDS011;1643;47.746;9.000;2023-04-24T00:46:32;1.20;;;1.10;;
3261;SDS011;1643;47.746;9.000;2023-04-24T00:48:58;1.60;;;1.07;;
3261;SDS011;1643;47.746;9.000;2023-04-24T00:51:24;1.00;;;0.90;;
3261;SDS011;1643;47.746;9.000;2023-04-24T00:53:50;1.30;;;1.00;;
3261;SDS011;1643;47.746;9.000;2023-04-24T00:56:16;1.53;;;1.10;;
3261;SDS011;1643;47.746;9.000;2023-04-24T00:58:43;1.20;;;1.10;;
3261;SDS011;1643;47.746;9.000;2023-04-24T01:01:09;1.00;;;1.00;;
3261;SDS011;1643;47.746;9.000;2023-04-24T01:03:36;2.07;;;1.40;;
3261;SDS011;1643;47.746;9.000;2023-04-24T01:06:03;1.30;;;1.20;;
3261;SDS011;1643;47.746;9.000;2023-04-24T01:08:30;1.50;;;1.23;;
3261;SDS011;1643;47.746;9.000;2023-04-24T01:10:57;1.27;;;1.00;;
3261;SDS011;1643;47.746;9.000;2023-04-24T01:13:23;1.43;;;1.27;;
3261;SDS011;1643;47.746;9.000;2023-04-24T01:15:48;1.10;;;1.10;;
3261;SDS011;1643;47.746;9.000;2023-04-24T01:18:14;1.30;;;1.20;;
3261;SDS011;1643;47.746;9.000;2023-04-24T01:20:40;1.23;;;1.13;;
3261;SDS011;1643;47.746;9.000;2023-04-24T01:23:09;2.73;;;0.93;;
3261;SDS011;1643;47.746;9.000;2023-04-24T01:25:35;1.20;;;1.10;;
3261;SDS011;1643;47.746;9.000;2023-04-24T01:28:01;1.00;;;0.90;;
3261;SDS011;1643;47.746;9.000;2023-04-24T01:30:27;1.37;;;1.10;;
3261;SDS011;1643;47.746;9.000;2023-04-24T01:32:54;1.50;;;1.30;;
3261;SDS011;1643;47.746;9.000;2023-04-24T01:35:21;1.20;;;1.10;;
3261;SDS011;1643;47.746;9.000;2023-04-24T01:37:47;1.20;;;1.10;;
3261;SDS011;1643;47.746;9.000;2023-04-24T01:40:12;1.57;;;1.03;;
3261;SDS011;1643;47.746;9.000;2023-04-24T01:42:40;2.20;;;1.10;;
3261;SDS011;1643;47.746;9.000;2023-04-24T01:45:06;0.90;;;0.87;;
3261;SDS011;1643;47.746;9.000;2023-04-24T01:47:35;1.30;;;0.80;;
3261;SDS011;1643;47.746;9.000;2023-04-24T01:50:01;1.67;;;0.80;;
3261;SDS011;1643;47.746;9.000;2023-04-24T01:52:28;1.17;;;1.03;;
3261;SDS011;1643;47.746;9.000;2023-04-24T01:54:56;7.83;;;1.27;;
3261;SDS011;1643;47.746;9.000;2023-04-24T01:57:24;1.00;;;0.90;;
3261;SDS011;1643;47.746;9.000;2023-04-24T01:59:50;1.03;;;0.93;;
3261;SDS011;1643;47.746;9.000;2023-04-24T02:02:16;1.10;;;0.83;;
3261;SDS011;1643;47.746;9.000;2023-04-24T02:04:42;1.90;;;0.90;;
3261;SDS011;1643;47.746;9.000;2023-04-24T02:07:07;1.43;;;0.80;;
3261;SDS011;1643;47.746;9.000;2023-04-24T02:09:33;1.47;;;0.83;;
3261;SDS011;1643;47.746;9.000;2023-04-24T02:11:58;2.23;;;1.00;;
3261;SDS011;1643;47.746;9.000;2023-04-24T02:14:25;0.70;;;0.70;;
3261;SDS011;1643;47.746;9.000;2023-04-24T02:16:51;2.10;;;1.23;;
3261;SDS011;1643;47.746;9.000;2023-04-24T02:19:16;1.60;;;0.90;;
3261;SDS011;1643;47.746;9.000;2023-04-24T02:21:42;0.80;;;0.80;;
3261;SDS011;1643;47.746;9.000;2023-04-24T02:24:08;0.70;;;0.70;;
3261;SDS011;1643;47.746;9.000;2023-04-24T02:26:33;1.63;;;1.30;;
3261;SDS011;1643;47.746;9.000;2023-04-24T02:28:59;0.83;;;0.83;;
3261;SDS011;1643;47.746;9.000;2023-04-24T02:31:25;1.03;;;0.87;;
3261;SDS011;1643;47.746;9.000;2023-04-24T02:33:50;0.80;;;0.80;;
3261;SDS011;1643;47.746;9.000;2023-04-24T02:36:16;0.87;;;0.87;;
3261;SDS011;1643;47.746;9.000;2023-04-24T02:38:41;0.70;;;0.70;;
3261;SDS011;1643;47.746;9.000;2023-04-24T02:41:07;1.90;;;0.87;;
3261;SDS011;1643;47.746;9.000;2023-04-24T02:43:33;1.17;;;0.80;;
3261;SDS011;1643;47.746;9.000;2023-04-24T02:45:59;0.60;;;0.60;;
3261;SDS011;1643;47.746;9.000;2023-04-24T02:48:25;0.63;;;0.63;;
3261;SDS011;1643;47.746;9.000;2023-04-24T02:50:51;0.60;;;0.60;;
3261;SDS011;1643;47.746;9.000;2023-04-24T02:53:16;0.87;;;0.80;;
3261;SDS011;1643;47.746;9.000;2023-04-24T02:55:42;1.87;;;0.80;;
3261;SDS011;1643;47.746;9.000;2023-04-24T02:58:07;1.77;;;0.77;;
3261;SDS011;1643;47.746;9.000;2023-04-24T03:00:33;0.80;;;0.67;;
3261;SDS011;1643;47.746;9.000;2023-04-24T03:02:59;1.67;;;0.60;;
3261;SDS011;1643;47.746;9.000;2023-04-24T03:05:25;2.67;;;1.30;;
3261;SDS011;1643;47.746;9.000;2023-04-24T03:07:52;0.80;;;0.60;;
3261;SDS011;1643;47.746;9.000;2023-04-24T03:10:18;0.70;;;0.60;;
3261;SDS011;1643;47.746;9.000;2023-04-24T03:12:43;0.70;;;0.70;;
3261;SDS011;1643;47.746;9.000;2023-04-24T03:15:09;1.57;;;0.70;;
3261;SDS011;1643;47.746;9.000;2023-04-24T03:17:35;1.10;;;0.70;;
3261;SDS011;1643;47.746;9.000;2023-04-24T03:20:01;1.03;;;0.80;;
3261;SDS011;1643;47.746;9.000;2023-04-24T03:22:27;0.60;;;0.60;;
3261;SDS011;1643;47.746;9.000;2023-04-24T03:24:53;0.87;;;0.70;;
3261;SDS011;1643;47.746;9.000;2023-04-24T03:27:19;0.70;;;0.70;;
3261;SDS011;1643;47.746;9.000;2023-04-24T03:29:45;0.97;;;0.70;;
3261;SDS011;1643;47.746;9.000;2023-04-24T03:32:11;2.00;;;0.70;;
3261;SDS011;1643;47.746;9.000;2023-04-24T03:34:36;0.60;;;0.60;;
3261;SDS011;1643;47.746;9.000;2023-04-24T03:37:02;0.60;;;0.60;;
3261;SDS011;1643;47.746;9.000;2023-04-24T03:39:27;2.67;;;0.70;;
3261;SDS011;1643;47.746;9.000;2023-04-24T03:41:53;0.60;;;0.60;;
3261;SDS011;1643;47.746;9.000;2023-04-24T03:44:19;1.27;;;0.70;;
3261;SDS011;1643;47.746;9.000;2023-04-24T03:46:45;0.83;;;0.83;;
3261;SDS011;1643;47.746;9.000;2023-04-24T03:49:10;0.70;;;0.70;;
3261;SDS011;1643;47.746;9.000;2023-04-24T03:51:36;0.70;;;0.70;;
3261;SDS011;1643;47.746;9.000;2023-04-24T03:54:01;0.80;;;0.70;;
3261;SDS011;1643;47.746;9.000;2023-04-24T03:56:28;1.37;;;0.80;;
3261;SDS011;1643;47.746;9.000;2023-04-24T03:58:53;0.80;;;0.73;;
3261;SDS011;1643;47.746;9.000;2023-04-24T04:01:19;1.77;;;0.77;;
3261;SDS011;1643;47.746;9.000;2023-04-24T04:03:45;1.77;;;0.77;;
3261;SDS011;1643;47.746;9.000;2023-04-24T04:06:11;0.83;;;0.67;;
3261;SDS011;1643;47.746;9.000;2023-04-24T04:08:38;3.27;;;0.70;;
3261;SDS011;1643;47.746;9.000;2023-04-24T04:11:03;1.13;;;0.70;;
3261;SDS011;1643;47.746;9.000;2023-04-24T04:13:29;1.23;;;0.93;;
3261;SDS011;1643;47.746;9.000;2023-04-24T04:15:55;1.67;;;0.70;;
3261;SDS011;1643;47.746;9.000;2023-04-24T04:18:20;1.17;;;0.70;;
3261;SDS011;1643;47.746;9.000;2023-04-24T04:20:46;0.70;;;0.70;;
3261;SDS011;1643;47.746;9.000;2023-04-24T04:23:11;0.70;;;0.70;;
3261;SDS011;1643;47.746;9.000;2023-04-24T04:25:37;1.17;;;0.70;;
3261;SDS011;1643;47.746;9.000;2023-04-24T04:28:02;0.80;;;0.70;;
3261;SDS011;1643;47.746;9.000;2023-04-24T04:30:28;0.60;;;0.60;;
3261;SDS011;1643;47.746;9.000;2023-04-24T04:32:57;1.37;;;0.70;;
3261;SDS011;1643;47.746;9.000;2023-04-24T04:35:22;0.80;;;0.80;;
3261;SDS011;1643;47.746;9.000;2023-04-24T04:37:48;0.60;;;0.60;;
3261;SDS011;1643;47.746;9.000;2023-04-24T04:40:14;0.70;;;0.70;;
3261;SDS011;1643;47.746;9.000;2023-04-24T04:42:40;0.80;;;0.80;;
3261;SDS011;1643;47.746;9.000;2023-04-24T04:45:06;0.97;;;0.70;;
3261;SDS011;1643;47.746;9.000;2023-04-24T04:47:34;1.87;;;0.70;;
3261;SDS011;1643;47.746;9.000;2023-04-24T04:49:59;0.60;;;0.60;;
3261;SDS011;1643;47.746;9.000;2023-04-24T04:52:26;0.67;;;0.67;;
3261;SDS011;1643;47.746;9.000;2023-04-24T04:54:52;0.77;;;0.77;;
3261;SDS011;1643;47.746;9.000;2023-04-24T04:57:17;1.40;;;0.70;;
3261;SDS011;1643;47.746;9.000;2023-04-24T04:59:43;0.70;;;0.60;;
3261;SDS011;1643;47.746;9.000;2023-04-24T05:02:09;0.60;;;0.60;;
3261;SDS011;1643;47.746;9.000;2023-04-24T05:04:35;1.97;;;0.70;;
3261;SDS011;1643;47.746;9.000;2023-04-24T05:07:00;0.60;;;0.60;;
3261;SDS011;1643;47.746;9.000;2023-04-24T05:09:26;0.70;;;0.70;;
3261;SDS011;1643;47.746;9.000;2023-04-24T05:11:54;0.77;;;0.60;;
3261;SDS011;1643;47.746;9.000;2023-04-24T05:14:20;0.67;;;0.67;;
3261;SDS011;1643;47.746;9.000;2023-04-24T05:16:45;0.70;;;0.70;;
3261;SDS011;1643;47.746;9.000;2023-04-24T05:19:11;1.30;;;0.80;;
3261;SDS011;1643;47.746;9.000;2023-04-24T05:21:38;0.70;;;0.70;;
3261;SDS011;1643;47.746;9.000;2023-04-24T05:24:05;0.60;;;0.60;;
3261;SDS011;1643;47.746;9.000;2023-04-24T05:26:31;0.67;;;0.67;;
3261;SDS011;1643;47.746;9.000;2023-04-24T05:28:56;0.80;;;0.80;;
3261;SDS011;1643;47.746;9.000;2023-04-24T05:31:22;1.20;;;0.70;;
3261;SDS011;1643;47.746;9.000;2023-04-24T05:33:48;0.70;;;0.70;;
3261;SDS011;1643;47.746;9.000;2023-04-24T05:36:13;0.90;;;0.80;;
3261;SDS011;1643;47.746;9.000;2023-04-24T05:38:39;1.17;;;0.77;;
3261;SDS011;1643;47.746;9.000;2023-04-24T05:41:05;3.40;;;1.00;;
3261;SDS011;1643;47.746;9.000;2023-04-24T05:43:31;0.80;;;0.80;;
3261;SDS011;1643;47.746;9.000;2023-04-24T05:45:56;0.80;;;0.80;;
3261;SDS011;1643;47.746;9.000;2023-04-24T05:48:22;1.80;;;0.70;;
3261;SDS011;1643;47.746;9.000;2023-04-24T05:50:48;0.90;;;0.90;;
3261;SDS011;1643;47.746;9.000;2023-04-24T05:53:14;0.83;;;0.80;;
3261;SDS011;1643;47.746;9.000;2023-04-24T05:55:39;1.07;;;0.90;;
3261;SDS011;1643;47.746;9.000;2023-04-24T05:58:05;1.00;;;0.90;;
3261;SDS011;1643;47.746;9.000;2023-04-24T06:00:31;4.63;;;3.53;;
3261;SDS011;1643;47.746;9.000;2023-04-24T06:02:57;2.50;;;2.13;;
3261;SDS011;1643;47.746;9.000;2023-04-24T06:05:23;0.87;;;0.87;;
3261;SDS011;1643;47.746;9.000;2023-04-24T06:07:50;1.40;;;1.30;;
3261;SDS011;1643;47.746;9.000;2023-04-24T06:10:15;1.40;;;1.30;;
3261;SDS011;1643;47.746;9.000;2023-04-24T06:12:41;1.10;;;1.00;;
3261;SDS011;1643;47.746;9.000;2023-04-24T06:15:07;1.30;;;1.20;;
3261;SDS011;1643;47.746;9.000;2023-04-24T06:17:33;2.10;;;1.13;;
3261;SDS011;1643;47.746;9.000;2023-04-24T06:19:58;1.37;;;1.27;;
3261;SDS011;1643;47.746;9.000;2023-04-24T06:22:24;1.23;;;1.13;;
3261;SDS011;1643;47.746;9.000;2023-04-24T06:24:50;1.37;;;1.27;;
3261;SDS011;1643;47.746;9.000;2023-04-24T06:27:15;1.33;;;1.23;;
3261;SDS011;1643;47.746;9.000;2023-04-24T06:29:41;2.03;;;1.40;;
3261;SDS011;1643;47.746;9.000;2023-04-24T06:32:06;1.13;;;1.10;;
3261;SDS011;1643;47.746;9.000;2023-04-24T06:34:32;4.27;;;1.50;;
3261;SDS011;1643;47.746;9.000;2023-04-24T06:36:59;1.50;;;1.40;;
3261;SDS011;1643;47.746;9.000;2023-04-24T06:39:25;2.20;;;1.60;;
3261;SDS011;1643;47.746;9.000;2023-04-24T06:41:50;2.30;;;1.40;;
3261;SDS011;1643;47.746;9.000;2023-04-24T06:44:16;1.30;;;1.20;;
3261;SDS011;1643;47.746;9.000;2023-04-24T06:46:42;1.40;;;1.30;;
3261;SDS011;1643;47.746;9.000;2023-04-24T06:49:07;2.40;;;1.57;;
3261;SDS011;1643;47.746;9.000;2023-04-24T06:51:33;4.10;;;1.60;;
3261;SDS011;1643;47.746;9.000;2023-04-24T06:53:59;2.53;;;1.60;;
3261;SDS011;1643;47.746;9.000;2023-04-24T06:56:25;1.70;;;1.60;;
3261;SDS011;1643;47.746;9.000;2023-04-24T06:58:51;1.63;;;1.43;;
3261;SDS011;1643;47.746;9.000;2023-04-24T07:01:16;4.43;;;1.70;;
3261;SDS011;1643;47.746;9.000;2023-04-24T07:03:42;1.57;;;1.47;;
3261;SDS011;1643;47.746;9.000;2023-04-24T07:06:08;3.27;;;1.63;;
3261;SDS011;1643;47.746;9.000;2023-04-24T07:08:38;2.70;;;2.07;;
3261;SDS011;1643;47.746;9.000;2023-04-24T07:11:03;1.63;;;1.53;;
3261;SDS011;1643;47.746;9.000;2023-04-24T07:13:29;1.70;;;1.60;;
3261;SDS011;1643;47.746;9.000;2023-04-24T07:15:55;2.10;;;1.90;;
3261;SDS011;1643;47.746;9.000;2023-04-24T07:18:21;2.20;;;2.00;;
3261;SDS011;1643;47.746;9.000;2023-04-24T07:20:47;2.23;;;1.37;;
3261;SDS011;1643;47.746;9.000;2023-04-24T07:23:15;3.10;;;1.67;;
3261;SDS011;1643;47.746;9.000;2023-04-24T07:25:40;1.73;;;1.60;;
3261;SDS011;1643;47.746;9.000;2023-04-24T07:28:06;3.63;;;1.97;;
3261;SDS011;1643;47.746;9.000;2023-04-24T07:30:32;3.13;;;1.73;;
3261;SDS011;1643;47.746;9.000;2023-04-24T07:32:58;4.00;;;2.23;;
3261;SDS011;1643;47.746;9.000;2023-04-24T07:35:24;3.50;;;1.63;;
3261;SDS011;1643;47.746;9.000;2023-04-24T07:37:51;2.80;;;2.10;;
3261;SDS011;1643;47.746;9.000;2023-04-24T07:40:18;2.77;;;1.80;;
3261;SDS011;1643;47.746;9.000;2023-04-24T07:42:43;4.93;;;2.43;;
3261;SDS011;1643;47.746;9.000;2023-04-24T07:45:09;2.17;;;1.87;;
3261;SDS011;1643;47.746;9.000;2023-04-24T07:47:35;5.27;;;2.10;;
3261;SDS011;1643;47.746;9.000;2023-04-24T07:50:02;5.47;;;1.90;;
3261;SDS011;1643;47.746;9.000;2023-04-24T07:52:28;4.80;;;2.00;;
3261;SDS011;1643;47.746;9.000;2023-04-24T07:54:54;2.17;;;1.80;;
3261;SDS011;1643;47.746;9.000;2023-04-24T07:57:23;3.27;;;2.00;;
3261;SDS011;1643;47.746;9.000;2023-04-24T07:59:50;3.53;;;1.60;;
3261;SDS011;1643;47.746;9.000;2023-04-24T08:02:15;1.67;;;1.33;;
3261;SDS011;1643;47.746;9.000;2023-04-24T08:04:41;2.30;;;1.73;;
3261;SDS011;1643;47.746;9.000;2023-04-24T08:07:07;1.60;;;1.50;;
3261;SDS011;1643;47.746;9.000;2023-04-24T08:09:33;2.53;;;1.33;;
3261;SDS011;1643;47.746;9.000;2023-04-24T08:11:58;2.00;;;1.40;;
3261;SDS011;1643;47.746;9.000;2023-04-24T08:14:24;1.77;;;1.40;;
3261;SDS011;1643;47.746;9.000;2023-04-24T08:16:50;4.80;;;1.40;;
3261;SDS011;1643;47.746;9.000;2023-04-24T08:19:17;2.30;;;1.43;;
3261;SDS011;1643;47.746;9.000;2023-04-24T08:21:42;1.50;;;1.40;;
3261;SDS011;1643;47.746;9.000;2023-04-24T08:24:08;2.37;;;1.50;;
3261;SDS011;1643;47.746;9.000;2023-04-24T08:26:34;1.20;;;1.10;;
3261;SDS011;1643;47.746;9.000;2023-04-24T08:29:00;3.20;;;1.30;;
3261;SDS011;1643;47.746;9.000;2023-04-24T08:31:26;3.50;;;1.43;;
3261;SDS011;1643;47.746;9.000;2023-04-24T08:33:52;1.37;;;1.23;;
3261;SDS011;1643;47.746;9.000;2023-04-24T08:36:17;3.90;;;1.40;;
3261;SDS011;1643;47.746;9.000;2023-04-24T08:38:43;1.53;;;1.43;;
3261;SDS011;1643;47.746;9.000;2023-04-24T08:41:11;1.40;;;1.30;;
3261;SDS011;1643;47.746;9.000;2023-04-24T08:43:39;2.03;;;1.67;;
3261;SDS011;1643;47.746;9.000;2023-04-24T08:46:05;1.50;;;1.40;;
3261;SDS011;1643;47.746;9.000;2023-04-24T08:48:31;1.83;;;1.30;;
3261;SDS011;1643;47.746;9.000;2023-04-24T08:50:58;1.63;;;1.20;;
3261;SDS011;1643;47.746;9.000;2023-04-24T08:53:24;1.17;;;1.10;;
3261;SDS011;1643;47.746;9.000;2023-04-24T08:55:50;1.83;;;1.60;;
3261;SDS011;1643;47.746;9.000;2023-04-24T08:58:17;3.20;;;1.80;;
3261;SDS011;1643;47.746;9.000;2023-04-24T09:00:44;2.10;;;1.43;;
3261;SDS011;1643;47.746;9.000;2023-04-24T09:03:13;2.30;;;1.50;;
3261;SDS011;1643;47.746;9.000;2023-04-24T09:05:40;4.93;;;1.70;;
3261;SDS011;1643;47.746;9.000;2023-04-24T09:08:10;3.23;;;1.87;;
3261;SDS011;1643;47.746;9.000;2023-04-24T09:10:38;1.97;;;1.67;;
3261;SDS011;1643;47.746;9.000;2023-04-24T09:13:05;3.13;;;1.50;;
3261;SDS011;1643;47.746;9.000;2023-04-24T09:15:31;1.70;;;1.60;;
3261;SDS011;1643;47.746;9.000;2023-04-24T09:17:57;3.83;;;1.97;;
3261;SDS011;1643;47.746;9.000;2023-04-24T09:20:22;3.07;;;1.77;;
3261;SDS011;1643;47.746;9.000;2023-04-24T09:22:48;2.23;;;1.67;;
3261;SDS011;1643;47.746;9.000;2023-04-24T09:25:20;3.07;;;1.67;;
3261;SDS011;1643;47.746;9.000;2023-04-24T09:27:46;2.43;;;1.60;;
3261;SDS011;1643;47.746;9.000;2023-04-24T09:30:12;1.73;;;1.63;;
3261;SDS011;1643;47.746;9.000;2023-04-24T09:32:38;2.00;;;1.60;;
3261;SDS011;1643;47.746;9.000;2023-04-24T09:35:05;2.30;;;1.60;;
3261;SDS011;1643;47.746;9.000;2023-04-24T09:37:34;1.60;;;1.50;;
3261;SDS011;1643;47.746;9.000;2023-04-24T09:42:33;2.10;;;1.90;;
3261;SDS011;1643;47.746;9.000;2023-04-24T09:44:59;1.90;;;1.73;;
3261;SDS011;1643;47.746;9.000;2023-04-24T09:47:24;2.17;;;1.47;;
3261;SDS011;1643;47.746;9.000;2023-04-24T09:49:50;3.10;;;1.90;;
3261;SDS011;1643;47.746;9.000;2023-04-24T09:52:19;4.80;;;2.10;;
3261;SDS011;1643;47.746;9.000;2023-04-24T09:54:51;4.50;;;1.90;;
3261;SDS011;1643;47.746;9.000;2023-04-24T09:57:18;6.50;;;1.87;;
3261;SDS011;1643;47.746;9.000;2023-04-24T09:59:45;2.60;;;1.70;;
3261;SDS011;1643;47.746;9.000;2023-04-24T10:02:17;2.43;;;1.97;;
3261;SDS011;1643;47.746;9.000;2023-04-24T10:04:53;3.90;;;1.70;;
3261;SDS011;1643;47.746;9.000;2023-04-24T10:07:21;1.97;;;1.50;;
3261;SDS011;1643;47.746;9.000;2023-04-24T10:09:47;1.80;;;1.70;;
3261;SDS011;1643;47.746;9.000;2023-04-24T10:12:13;1.70;;;1.60;;
3261;SDS011;1643;47.746;9.000;2023-04-24T10:14:40;3.33;;;1.70;;
3261;SDS011;1643;47.746;9.000;2023-04-24T10:17:05;1.50;;;1.40;;
3261;SDS011;1643;47.746;9.000;2023-04-24T10:19:31;2.70;;;1.70;;
3261;SDS011;1643;47.746;9.000;2023-04-24T10:21:58;3.97;;;1.80;;
3261;SDS011;1643;47.746;9.000;2023-04-24T10:24:24;2.73;;;1.60;;
3261;SDS011;1643;47.746;9.000;2023-04-24T10:26:50;6.10;;;1.67;;
3261;SDS011;1643;47.746;9.000;2023-04-24T10:29:18;4.37;;;1.50;;
3261;SDS011;1643;47.746;9.000;2023-04-24T10:31:44;2.60;;;1.83;;
3261;SDS011;1643;47.746;9.000;2023-04-24T10:34:13;2.83;;;1.73;;
3261;SDS011;1643;47.746;9.000;2023-04-24T10:36:42;3.00;;;1.77;;
3261;SDS011;1643;47.746;9.000;2023-04-24T10:39:13;2.10;;;1.70;;
3261;SDS011;1643;47.746;9.000;2023-04-24T10:41:42;3.57;;;1.70;;
3261;SDS011;1643;47.746;9.000;2023-04-24T10:44:09;3.03;;;1.87;;
3261;SDS011;1643;47.746;9.000;2023-04-24T10:46:36;3.43;;;1.90;;
3261;SDS011;1643;47.746;9.000;2023-04-24T10:49:06;2.60;;;1.60;;
3261;SDS011;1643;47.746;9.000;2023-04-24T10:51:49;4.47;;;1.80;;
3261;SDS011;1643;47.746;9.000;2023-04-24T10:55:01;2.03;;;1.70;;
3261;SDS011;1643;47.746;9.000;2023-04-24T10:59:50;3.47;;;1.37;;
3261;SDS011;1643;47.746;9.000;2023-04-24T11:02:37;4.93;;;1.70;;
3261;SDS011;1643;47.746;9.000;2023-04-24T11:05:05;3.63;;;1.60;;
3261;SDS011;1643;47.746;9.000;2023-04-24T11:13:27;2.10;;;1.50;;
3261;SDS011;1643;47.746;9.000;2023-04-24T11:19:07;2.30;;;1.80;;
3261;SDS011;1643;47.746;9.000;2023-04-24T11:21:45;4.80;;;1.70;;
3261;SDS011;1643;47.746;9.000;2023-04-24T11:24:26;1.60;;;1.50;;
3261;SDS011;1643;47.746;9.000;2023-04-24T11:26:56;3.87;;;1.67;;
3261;SDS011;1643;47.746;9.000;2023-04-24T11:32:16;3.20;;;1.83;;
3261;SDS011;1643;47.746;9.000;2023-04-24T11:37:29;3.23;;;1.60;;
3261;SDS011;1643;47.746;9.000;2023-04-24T11:40:06;4.30;;;1.80;;
3261;SDS011;1643;47.746;9.000;2023-04-24T11:42:34;1.80;;;1.70;;
3261;SDS011;1643;47.746;9.000;2023-04-24T11:45:01;2.03;;;1.83;;
3261;SDS011;1643;47.746;9.000;2023-04-24T11:47:32;5.73;;;1.73;;
3261;SDS011;1643;47.746;9.000;2023-04-24T11:49:58;1.43;;;1.33;;
3261;SDS011;1643;47.746;9.000;2023-04-24T11:52:25;3.27;;;1.60;;
3261;SDS011;1643;47.746;9.000;2023-04-24T11:54:51;1.50;;;1.40;;
3261;SDS011;1643;47.746;9.000;2023-04-24T11:57:20;2.80;;;1.40;;
3261;SDS011;1643;47.746;9.000;2023-04-24T11:59:47;4.57;;;1.70;;
3261;SDS011;1643;47.746;9.000;2023-04-24T12:02:47;2.03;;;1.83;;
3261;SDS011;1643;47.746;9.000;2023-04-24T12:05:05;2.00;;;1.37;;
3261;SDS011;1643;47.746;9.000;2023-04-24T12:07:31;1.70;;;1.60;;
3261;SDS011;1643;47.746;9.000;2023-04-24T12:10:07;2.00;;;1.80;;
3261;SDS011;1643;47.746;9.000;2023-04-24T12:12:34;1.87;;;1.67;;
3261;SDS011;1643;47.746;9.000;2023-04-24T12:15:00;1.73;;;1.57;;
3261;SDS011;1643;47.746;9.000;2023-04-24T12:17:31;1.90;;;1.70;;
3261;SDS011;1643;47.746;9.000;2023-04-24T12:19:59;3.83;;;2.53;;
3261;SDS011;1643;47.746;9.000;2023-04-24T12:22:26;1.80;;;1.30;;
3261;SDS011;1643;47.746;9.000;2023-04-24T12:24:55;2.93;;;1.60;;
3261;SDS011;1643;47.746;9.000;2023-04-24T12:27:22;3.30;;;1.67;;
3261;SDS011;1643;47.746;9.000;2023-04-24T12:30:09;2.20;;;2.03;;
3261;SDS011;1643;47.746;9.000;2023-04-24T12:32:40;2.23;;;1.30;;
3261;SDS011;1643;47.746;9.000;2023-04-24T12:35:07;1.70;;;1.60;;
3261;SDS011;1643;47.746;9.000;2023-04-24T12:37:33;3.23;;;1.97;;
3261;SDS011;1643;47.746;9.000;2023-04-24T12:42:33;1.40;;;1.33;;
3261;SDS011;1643;47.746;9.000;2023-04-24T12:45:03;2.07;;;1.50;;
3261;SDS011;1643;47.746;9.000;2023-04-24T12:47:31;1.63;;;1.53;;
3261;SDS011;1643;47.746;9.000;2023-04-24T12:49:58;2.67;;;1.70;;
3261;SDS011;1643;47.746;9.000;2023-04-24T12:52:24;1.50;;;1.40;;
3261;SDS011;1643;47.746;9.000;2023-04-24T12:54:54;3.20;;;1.60;;
3261;SDS011;1643;47.746;9.000;2023-04-24T12:57:22;1.50;;;1.40;;
3261;SDS011;1643;47.746;9.000;2023-04-24T12:59:48;3.70;;;1.70;;
3261;SDS011;1643;47.746;9.000;2023-04-24T13:02:15;3.47;;;1.60;;
3261;SDS011;1643;47.746;9.000;2023-04-24T13:04:47;1.73;;;1.60;;
3261;SDS011;1643;47.746;9.000;2023-04-24T13:07:13;2.50;;;2.13;;
3261;SDS011;1643;47.746;9.000;2023-04-24T13:09:39;1.97;;;1.87;;
3261;SDS011;1643;47.746;9.000;2023-04-24T13:12:06;2.03;;;1.40;;
3261;SDS011;1643;47.746;9.000;2023-04-24T13:14:32;1.73;;;1.63;;
3261;SDS011;1643;47.746;9.000;2023-04-24T13:16:58;2.37;;;2.17;;
3261;SDS011;1643;47.746;9.000;2023-04-24T13:19:27;2.27;;;2.10;;
3261;SDS011;1643;47.746;9.000;2023-04-24T13:21:54;4.70;;;2.03;;
3261;SDS011;1643;47.746;9.000;2023-04-24T13:24:21;5.50;;;1.97;;
3261;SDS011;1643;47.746;9.000;2023-04-24T13:26:49;3.30;;;2.10;;
3261;SDS011;1643;47.746;9.000;2023-04-24T13:29:15;8.43;;;2.30;;
3261;SDS011;1643;47.746;9.000;2023-04-24T13:31:41;3.60;;;1.70;;
3261;SDS011;1643;47.746;9.000;2023-04-24T13:34:06;5.70;;;1.50;;
3261;SDS011;1643;47.746;9.000;2023-04-24T13:36:32;2.20;;;1.67;;
3261;SDS011;1643;47.746;9.000;2023-04-24T13:38:58;1.80;;;1.70;;
3261;SDS011;1643;47.746;9.000;2023-04-24T13:41:23;1.90;;;1.70;;
3261;SDS011;1643;47.746;9.000;2023-04-24T13:43:49;2.20;;;1.87;;
3261;SDS011;1643;47.746;9.000;2023-04-24T13:46:15;1.50;;;1.40;;
3261;SDS011;1643;47.746;9.000;2023-04-24T13:48:41;3.90;;;1.60;;
3261;SDS011;1643;47.746;9.000;2023-04-24T13:51:07;2.20;;;1.70;;
3261;SDS011;1643;47.746;9.000;2023-04-24T13:53:32;2.10;;;1.80;;
3261;SDS011;1643;47.746;9.000;2023-04-24T13:56:01;1.60;;;1.30;;
3261;SDS011;1643;47.746;9.000;2023-04-24T13:58:27;2.20;;;1.80;;
3261;SDS011;1643;47.746;9.000;2023-04-24T14:00:52;3.03;;;1.50;;
3261;SDS011;1643;47.746;9.000;2023-04-24T14:03:18;1.53;;;1.43;;
3261;SDS011;1643;47.746;9.000;2023-04-24T14:05:44;2.07;;;1.87;;
3261;SDS011;1643;47.746;9.000;2023-04-24T14:08:09;2.90;;;1.70;;
3261;SDS011;1643;47.746;9.000;2023-04-24T14:10:35;3.87;;;1.83;;
3261;SDS011;1643;47.746;9.000;2023-04-24T14:13:01;2.23;;;1.80;;
3261;SDS011;1643;47.746;9.000;2023-04-24T14:15:26;3.37;;;1.70;;
3261;SDS011;1643;47.746;9.000;2023-04-24T14:17:53;2.47;;;1.90;;
3261;SDS011;1643;47.746;9.000;2023-04-24T14:20:18;1.77;;;1.67;;
3261;SDS011;1643;47.746;9.000;2023-04-24T14:22:44;3.13;;;1.87;;
3261;SDS011;1643;47.746;9.000;2023-04-24T14:25:10;2.20;;;1.47;;
3261;SDS011;1643;47.746;9.000;2023-04-24T14:27:36;1.57;;;1.47;;
3261;SDS011;1643;47.746;9.000;2023-04-24T14:30:02;2.00;;;1.90;;
3261;SDS011;1643;47.746;9.000;2023-04-24T14:32:28;5.80;;;2.20;;
3261;SDS011;1643;47.746;9.000;2023-04-24T14:34:53;2.37;;;1.90;;
3261;SDS011;1643;47.746;9.000;2023-04-24T14:37:19;2.40;;;1.30;;
3261;SDS011;1643;47.746;9.000;2023-04-24T14:39:45;2.07;;;1.97;;
3261;SDS011;1643;47.746;9.000;2023-04-24T14:42:10;2.73;;;1.50;;
3261;SDS011;1643;47.746;9.000;2023-04-24T14:44:36;2.03;;;1.83;;
3261;SDS011;1643;47.746;9.000;2023-04-24T14:47:02;3.00;;;1.70;;
3261;SDS011;1643;47.746;9.000;2023-04-24T14:49:27;1.80;;;1.70;;
3261;SDS011;1643;47.746;9.000;2023-04-24T14:51:53;2.17;;;1.80;;
3261;SDS011;1643;47.746;9.000;2023-04-24T14:54:18;2.37;;;1.80;;
3261;SDS011;1643;47.746;9.000;2023-04-24T14:56:47;1.83;;;1.63;;
3261;SDS011;1643;47.746;9.000;2023-04-24T14:59:14;2.13;;;1.50;;
3261;SDS011;1643;47.746;9.000;2023-04-24T15:01:40;1.90;;;1.73;;
3261;SDS011;1643;47.746;9.000;2023-04-24T15:04:05;7.53;;;1.83;;
3261;SDS011;1643;47.746;9.000;2023-04-24T15:06:31;2.23;;;1.67;;
3261;SDS011;1643;47.746;9.000;2023-04-24T15:08:57;4.00;;;1.70;;
3261;SDS011;1643;47.746;9.000;2023-04-24T15:11:23;1.77;;;1.67;;
3261;SDS011;1643;47.746;9.000;2023-04-24T15:13:49;2.13;;;1.83;;
3261;SDS011;1643;47.746;9.000;2023-04-24T15:16:15;2.40;;;1.80;;
3261;SDS011;1643;47.746;9.000;2023-04-24T15:18:41;1.83;;;1.73;;
3261;SDS011;1643;47.746;9.000;2023-04-24T15:21:06;1.80;;;1.67;;
3261;SDS011;1643;47.746;9.000;2023-04-24T15:23:32;1.77;;;1.50;;
3261;SDS011;1643;47.746;9.000;2023-04-24T15:25:58;2.30;;;1.80;;
3261;SDS011;1643;47.746;9.000;2023-04-24T15:28:24;1.90;;;1.60;;
3261;SDS011;1643;47.746;9.000;2023-04-24T15:30:50;1.57;;;1.47;;
3261;SDS011;1643;47.746;9.000;2023-04-24T15:33:15;2.27;;;1.80;;